Time;durP1;ratioP1;P1;durP2;ratioP2;P2;SDS_P1;SDS_P2;PMS_P1;PMS_P2;Temp;Humidity;BMP_temperature;BMP_pressure;BME280_temperature;BME280_humidity;BME280_pressure;Samples;Min_cycle;Max_cycle;Signal;HPM_P1;HPM_P2
2022/02/28 00:02:02;;;;;;;;;;;2.10;72.30;;;;;;5070740;27;81692;-68
2022/02/28 00:04:27;;;;;;;;;;;2.10;72.50;;;;;;5072999;27;83122;-68
2022/02/28 00:06:53;;;;;;;;;;;2.10;72.50;;;;;;5070696;27;82000;-68
2022/02/28 00:09:20;;;;;;;;;;;2.10;72.20;;;;;;5070685;27;81785;-68
2022/02/28 00:11:45;;;;;;;;;;;2.10;72.10;;;;;;5070611;27;81166;-68
2022/02/28 00:14:11;;;;;;;;;;;2.20;72.20;;;;;;5070374;27;81809;-68
2022/02/28 00:16:37;;;;;;;;;;;2.20;72.10;;;;;;5070599;27;81801;-68
2022/02/28 00:19:02;;;;;;;;;;;2.10;72.30;;;;;;5069641;27;82650;-68
2022/02/28 00:21:28;;;;;;;;;;;2.20;72.30;;;;;;5070600;27;81794;-68
2022/02/28 00:23:53;;;;;;;;;;;2.10;72.20;;;;;;5070553;27;81785;-68
2022/02/28 00:26:19;;;;;;;;;;;2.10;72.20;;;;;;5072998;27;81780;-68
2022/02/28 00:28:45;;;;;;;;;;;2.10;72.10;;;;;;5070184;27;82974;-68
2022/02/28 00:31:10;;;;;;;;;;;2.00;72.40;;;;;;5070211;27;82436;-67
2022/02/28 00:33:36;;;;;;;;;;;2.10;72.30;;;;;;5070320;27;81785;-68
2022/02/28 00:36:01;;;;;;;;;;;2.10;72.10;;;;;;5070809;27;81105;-68
2022/02/28 00:38:27;;;;;;;;;;;2.10;72.00;;;;;;5070011;27;82384;-68
2022/02/28 00:40:53;;;;;;;;;;;2.10;72.10;;;;;;5070380;27;82329;-68
2022/02/28 00:43:19;;;;;;;;;;;2.10;72.10;;;;;;5069372;27;82799;-68
2022/02/28 00:45:45;;;;;;;;;;;2.20;71.90;;;;;;5069800;27;83503;-68
2022/02/28 00:48:10;;;;;;;;;;;2.10;71.60;;;;;;5073078;27;81688;-68
2022/02/28 00:50:36;;;;;;;;;;;2.10;72.10;;;;;;5069692;27;83420;-68
2022/02/28 00:53:02;;;;;;;;;;;2.10;72.00;;;;;;5070778;27;81765;-68
2022/02/28 00:55:28;;;;;;;;;;;2.10;72.10;;;;;;5073633;27;81719;-68
2022/02/28 00:57:54;;;;;;;;;;;2.10;71.80;;;;;;5073220;27;83596;-67
2022/02/28 01:00:20;;;;;;;;;;;2.00;72.10;;;;;;5074120;27;81054;-67
2022/02/28 01:02:46;;;;;;;;;;;2.10;71.90;;;;;;5073474;27;82178;-67
2022/02/28 01:05:13;;;;;;;;;;;2.00;71.90;;;;;;5073319;27;82009;-67
2022/02/28 01:07:40;;;;;;;;;;;2.00;72.10;;;;;;5075348;27;82786;-67
2022/02/28 01:10:07;;;;;;;;;;;2.00;71.90;;;;;;5072871;27;81793;-67
2022/02/28 01:12:32;;;;;;;;;;;2.00;72.10;;;;;;5073222;27;82082;-67
2022/02/28 01:14:58;;;;;;;;;;;2.00;71.90;;;;;;5073128;27;82097;-67
2022/02/28 01:17:24;;;;;;;;;;;2.00;71.80;;;;;;5072859;27;83487;-67
2022/02/28 01:19:50;;;;;;;;;;;2.00;72.00;;;;;;5073027;27;81776;-67
2022/02/28 01:22:16;;;;;;;;;;;2.10;71.90;;;;;;5073044;27;82131;-67
2022/02/28 01:24:42;;;;;;;;;;;2.00;71.90;;;;;;5073591;27;81742;-67
2022/02/28 01:27:09;;;;;;;;;;;2.00;71.90;;;;;;5072843;27;82112;-67
2022/02/28 01:29:35;;;;;;;;;;;2.00;72.10;;;;;;5075440;27;82032;-67
2022/02/28 01:32:02;;;;;;;;;;;1.90;72.00;;;;;;5072105;27;82748;-66
2022/02/28 01:34:28;;;;;;;;;;;1.90;71.80;;;;;;5073072;27;82442;-66
2022/02/28 01:36:53;;;;;;;;;;;1.90;72.00;;;;;;5072553;27;83796;-66
2022/02/28 01:39:19;;;;;;;;;;;1.90;72.00;;;;;;5072887;27;81936;-66
2022/02/28 01:41:45;;;;;;;;;;;1.90;72.00;;;;;;5073013;27;81708;-65
2022/02/28 01:44:10;;;;;;;;;;;1.90;72.00;;;;;;5072838;27;82577;-65
2022/02/28 01:46:39;;;;;;;;;;;1.90;72.00;;;;;;5072983;27;81803;-65
2022/02/28 01:49:06;;;;;;;;;;;1.90;71.90;;;;;;5073381;27;81677;-65
2022/02/28 01:51:34;;;;;;;;;;;1.90;71.90;;;;;;5075291;27;82494;-65
2022/02/28 01:53:59;;;;;;;;;;;1.80;72.20;;;;;;5072877;27;81862;-65
2022/02/28 01:56:25;;;;;;;;;;;1.90;72.10;;;;;;5071083;27;82783;-65
2022/02/28 01:58:51;;;;;;;;;;;1.90;71.80;;;;;;5072752;27;81807;-65
2022/02/28 02:01:16;;;;;;;;;;;1.80;72.00;;;;;;5072639;27;82052;-65
2022/02/28 02:03:42;;;;;;;;;;;1.90;71.90;;;;;;5071229;27;82503;-66
2022/02/28 02:06:09;;;;;;;;;;;1.80;71.90;;;;;;5072603;27;81737;-65
2022/02/28 02:08:35;;;;;;;;;;;1.80;72.30;;;;;;5071655;27;81805;-65
2022/02/28 02:11:02;;;;;;;;;;;1.80;72.20;;;;;;5071750;27;82989;-65
2022/02/28 02:13:30;;;;;;;;;;;1.80;72.00;;;;;;5075372;27;81068;-65
2022/02/28 02:15:56;;;;;;;;;;;1.80;72.00;;;;;;5071914;27;83445;-65
2022/02/28 02:18:23;;;;;;;;;;;1.80;72.00;;;;;;5072110;27;81694;-65
2022/02/28 02:20:49;;;;;;;;;;;1.80;72.00;;;;;;5071540;27;82888;-64
2022/02/28 02:23:16;;;;;;;;;;;1.70;72.30;;;;;;5071563;27;82561;-64
2022/02/28 02:25:43;;;;;;;;;;;1.70;72.30;;;;;;5072020;27;81812;-64
2022/02/28 02:28:10;;;;;;;;;;;1.70;72.00;;;;;;5072058;27;82064;-64
2022/02/28 02:30:36;;;;;;;;;;;1.70;72.10;;;;;;5071807;27;84037;-64
2022/02/28 02:33:01;;;;;;;;;;;1.70;72.10;;;;;;5071812;27;81910;-64
2022/02/28 02:35:27;;;;;;;;;;;1.70;72.10;;;;;;5074535;27;81993;-64
2022/02/28 02:37:53;;;;;;;;;;;1.70;72.00;;;;;;5072394;27;81062;-64
2022/02/28 02:40:19;;;;;;;;;;;1.80;71.90;;;;;;5071813;27;82056;-64
2022/02/28 02:42:44;;;;;;;;;;;1.70;71.90;;;;;;5071573;27;82691;-64
2022/02/28 02:45:10;;;;;;;;;;;1.70;71.90;;;;;;5071316;27;82677;-64
2022/02/28 02:47:37;;;;;;;;;;;1.70;72.10;;;;;;5071673;27;83595;-64
2022/02/28 02:50:04;;;;;;;;;;;1.70;71.90;;;;;;5071568;27;82651;-66
2022/02/28 02:52:29;;;;;;;;;;;1.70;72.00;;;;;;5071594;27;81883;-66
2022/02/28 02:54:55;;;;;;;;;;;1.70;71.90;;;;;;5071789;27;81851;-66
2022/02/28 02:57:20;;;;;;;;;;;1.70;71.70;;;;;;5074076;27;83470;-65
2022/02/28 02:59:47;;;;;;;;;;;1.70;71.90;;;;;;5071907;27;81778;-65
2022/02/28 03:02:12;;;;;;;;;;;1.70;71.70;;;;;;5072056;27;81693;-65
2022/02/28 03:04:38;;;;;;;;;;;1.70;71.90;;;;;;5071463;27;81765;-65
2022/02/28 03:07:12;;;;;;;;;;;1.70;72.30;;;;;;5071456;27;82062;-65
2022/02/28 03:09:38;;;;;;;;;;;1.70;71.90;;;;;;5070670;27;83218;-64
2022/02/28 03:12:04;;;;;;;;;;;1.70;71.90;;;;;;5070969;27;81853;-64
2022/02/28 03:14:29;;;;;;;;;;;1.70;71.70;;;;;;5071283;27;83172;-64
2022/02/28 03:16:55;;;;;;;;;;;1.70;71.70;;;;;;5073185;27;81797;-64
2022/02/28 03:19:21;;;;;;;;;;;1.70;71.70;;;;;;5071182;27;83245;-64
2022/02/28 03:21:46;;;;;;;;;;;1.70;71.80;;;;;;5071288;27;81883;-63
2022/02/28 03:24:12;;;;;;;;;;;1.70;71.80;;;;;;5071390;27;81743;-64
2022/02/28 03:26:38;;;;;;;;;;;1.60;71.80;;;;;;5071614;27;82606;-63
2022/02/28 03:29:03;;;;;;;;;;;1.60;71.80;;;;;;5071107;27;81833;-63
2022/02/28 03:31:29;;;;;;;;;;;1.60;71.80;;;;;;5070938;27;81972;-63
2022/02/28 03:33:55;;;;;;;;;;;1.60;71.70;;;;;;5070646;27;82720;-64
2022/02/28 03:36:20;;;;;;;;;;;1.70;71.60;;;;;;5070814;27;82728;-64
2022/02/28 03:38:46;;;;;;;;;;;1.60;71.60;;;;;;5073618;27;81856;-63
2022/02/28 03:41:12;;;;;;;;;;;1.60;71.70;;;;;;5070952;27;82283;-64
2022/02/28 03:43:37;;;;;;;;;;;1.60;71.60;;;;;;5070893;27;81780;-64
2022/02/28 03:46:03;;;;;;;;;;;1.60;71.70;;;;;;5071148;27;81821;-64
2022/02/28 03:48:28;;;;;;;;;;;1.60;71.80;;;;;;5070903;27;82245;-64
2022/02/28 03:50:54;;;;;;;;;;;1.60;71.90;;;;;;5071232;27;81123;-64
2022/02/28 03:53:20;;;;;;;;;;;1.60;71.90;;;;;;5071030;27;81810;-64
2022/02/28 03:55:45;;;;;;;;;;;1.60;71.70;;;;;;5070398;27;83412;-64
2022/02/28 03:58:11;;;;;;;;;;;1.60;72.00;;;;;;5069979;27;82774;-64
2022/02/28 04:00:37;;;;;;;;;;;1.50;71.90;;;;;;5072990;27;83557;-64
2022/02/28 04:03:02;;;;;;;;;;;1.50;71.90;;;;;;5070647;27;81853;-64
2022/02/28 04:05:28;;;;;;;;;;;1.50;72.00;;;;;;5070403;27;82645;-64
2022/02/28 04:07:54;;;;;;;;;;;1.50;72.00;;;;;;5070243;27;82652;-64
2022/02/28 04:10:20;;;;;;;;;;;1.50;72.20;;;;;;5070292;27;81790;-64
2022/02/28 04:12:45;;;;;;;;;;;1.50;72.00;;;;;;5070746;27;81932;-64
2022/02/28 04:15:11;;;;;;;;;;;1.50;72.10;;;;;;5070634;27;82630;-64
2022/02/28 04:17:37;;;;;;;;;;;1.50;72.10;;;;;;5070389;27;81812;-64
2022/02/28 04:20:04;;;;;;;;;;;1.50;72.20;;;;;;5070351;27;82147;-64
2022/02/28 04:22:29;;;;;;;;;;;1.50;71.80;;;;;;5071551;27;83453;-63
2022/02/28 04:24:55;;;;;;;;;;;1.50;72.00;;;;;;5070267;27;82899;-64
2022/02/28 04:27:21;;;;;;;;;;;1.50;72.30;;;;;;5071492;27;81825;-64
2022/02/28 04:29:46;;;;;;;;;;;1.40;72.20;;;;;;5074198;27;82031;-64
2022/02/28 04:32:13;;;;;;;;;;;1.50;72.10;;;;;;5073315;27;82041;-64
2022/02/28 04:34:38;;;;;;;;;;;1.40;72.10;;;;;;5073566;27;82580;-64
2022/02/28 04:37:04;;;;;;;;;;;1.40;72.20;;;;;;5074049;27;81787;-64
2022/02/28 04:39:30;;;;;;;;;;;1.40;72.10;;;;;;5074516;27;81083;-64
2022/02/28 04:41:55;;;;;;;;;;;1.40;72.10;;;;;;5073717;27;81885;-64
2022/02/28 04:44:21;;;;;;;;;;;1.40;72.10;;;;;;5076384;27;81786;-64
2022/02/28 04:46:46;;;;;;;;;;;1.40;72.10;;;;;;5073007;27;82761;-64
2022/02/28 04:49:12;;;;;;;;;;;1.40;72.10;;;;;;5073965;27;81710;-64
2022/02/28 04:51:38;;;;;;;;;;;1.40;72.10;;;;;;5073826;27;81668;-64
2022/02/28 04:54:03;;;;;;;;;;;1.40;72.20;;;;;;5073463;27;82683;-63
2022/02/28 04:56:29;;;;;;;;;;;1.40;72.10;;;;;;5073785;27;81857;-64
2022/02/28 04:58:54;;;;;;;;;;;1.30;72.20;;;;;;5073537;27;82126;-64
2022/02/28 05:01:20;;;;;;;;;;;1.30;72.40;;;;;;5073396;27;82870;-63
2022/02/28 05:03:46;;;;;;;;;;;1.30;72.30;;;;;;5073788;27;81085;-64
2022/02/28 05:06:11;;;;;;;;;;;1.40;72.20;;;;;;5076129;27;81774;-64
2022/02/28 05:08:37;;;;;;;;;;;1.30;72.10;;;;;;5073336;27;81795;-64
2022/02/28 05:11:03;;;;;;;;;;;1.30;72.20;;;;;;5071741;27;82646;-64
2022/02/28 05:13:28;;;;;;;;;;;1.30;72.20;;;;;;5073132;27;83473;-64
2022/02/28 05:15:54;;;;;;;;;;;1.30;72.20;;;;;;5073025;27;81941;-64
2022/02/28 05:18:19;;;;;;;;;;;1.30;72.30;;;;;;5072456;27;81814;-64
2022/02/28 05:20:45;;;;;;;;;;;1.30;72.10;;;;;;5072824;27;82603;-64
2022/02/28 05:23:11;;;;;;;;;;;1.30;72.40;;;;;;5073402;27;81781;-64
2022/02/28 05:25:37;;;;;;;;;;;1.30;72.40;;;;;;5075927;27;81780;-64
2022/02/28 05:28:03;;;;;;;;;;;1.30;72.50;;;;;;5073404;27;81050;-64
2022/02/28 05:30:29;;;;;;;;;;;1.30;72.50;;;;;;5072159;27;81709;-64
2022/02/28 05:32:54;;;;;;;;;;;1.30;72.40;;;;;;5072623;27;83394;-64
2022/02/28 05:35:20;;;;;;;;;;;1.20;72.40;;;;;;5072556;27;82753;-64
2022/02/28 05:37:45;;;;;;;;;;;1.30;72.40;;;;;;5073084;27;82686;-64
2022/02/28 05:40:11;;;;;;;;;;;1.30;72.40;;;;;;5072156;27;82389;-64
2022/02/28 05:42:38;;;;;;;;;;;1.30;72.40;;;;;;5072843;27;81781;-64
2022/02/28 05:45:04;;;;;;;;;;;1.30;72.40;;;;;;5072977;27;81971;-64
2022/02/28 05:47:30;;;;;;;;;;;1.30;72.50;;;;;;5075293;27;83300;-64
2022/02/28 05:49:56;;;;;;;;;;;1.20;72.40;;;;;;5072609;27;82549;-64
2022/02/28 05:52:21;;;;;;;;;;;1.30;72.40;;;;;;5073166;27;81074;-64
2022/02/28 05:54:48;;;;;;;;;;;1.20;72.40;;;;;;5072783;27;81746;-64
2022/02/28 05:57:13;;;;;;;;;;;1.20;72.50;;;;;;5072599;27;83402;-64
2022/02/28 05:59:39;;;;;;;;;;;1.20;72.70;;;;;;5071799;27;83374;-64
2022/02/28 06:02:05;;;;;;;;;;;1.20;72.50;;;;;;5072415;27;81829;-64
2022/02/28 06:04:30;;;;;;;;;;;1.20;72.60;;;;;;5072297;27;83049;-64
2022/02/28 06:06:56;;;;;;;;;;;1.20;72.60;;;;;;5072423;27;81828;-63
2022/02/28 06:09:21;;;;;;;;;;;1.20;72.60;;;;;;5075346;27;81772;-64
2022/02/28 06:11:49;;;;;;;;;;;1.20;72.60;;;;;;5071881;27;82015;-63
2022/02/28 06:14:15;;;;;;;;;;;1.20;72.60;;;;;;5072523;27;81826;-63
2022/02/28 06:16:40;;;;;;;;;;;1.20;72.50;;;;;;5072674;27;81909;-63
2022/02/28 06:19:06;;;;;;;;;;;1.20;72.70;;;;;;5072019;27;83593;-64
2022/02/28 06:21:32;;;;;;;;;;;1.20;72.70;;;;;;5072089;27;81841;-63
2022/02/28 06:23:57;;;;;;;;;;;1.20;72.70;;;;;;5071519;27;82999;-63
2022/02/28 06:26:23;;;;;;;;;;;1.20;72.60;;;;;;5072102;27;82367;-62
2022/02/28 06:28:49;;;;;;;;;;;1.20;72.80;;;;;;5072411;27;82086;-63
2022/02/28 06:31:14;;;;;;;;;;;1.20;72.80;;;;;;5074603;27;83013;-63
2022/02/28 06:33:40;;;;;;;;;;;1.20;72.80;;;;;;5072085;27;81762;-63
2022/02/28 06:36:06;;;;;;;;;;;1.20;72.60;;;;;;5071898;27;81826;-64
2022/02/28 06:38:32;;;;;;;;;;;1.20;73.40;;;;;;5071914;27;82867;-63
2022/02/28 06:40:57;;;;;;;;;;;1.20;72.80;;;;;;5072409;27;81083;-63
2022/02/28 06:43:24;;;;;;;;;;;1.20;72.70;;;;;;5071785;27;82124;-64
2022/02/28 06:45:53;;;;;;;;;;;1.20;72.80;;;;;;5071545;27;83601;-63
2022/02/28 06:48:19;;;;;;;;;;;1.20;72.80;;;;;;5071258;27;82738;-64
2022/02/28 06:50:46;;;;;;;;;;;1.20;72.80;;;;;;5070661;27;82699;-63
2022/02/28 06:53:18;;;;;;;;;;;1.20;72.70;;;;;;5074145;27;82612;-63
2022/02/28 06:55:44;;;;;;;;;;;1.20;72.70;;;;;;5071747;27;81947;-64
2022/02/28 06:58:10;;;;;;;;;;;1.20;72.80;;;;;;5071682;27;82584;-64
2022/02/28 07:00:36;;;;;;;;;;;1.20;72.70;;;;;;5071766;27;81723;-64
2022/02/28 07:03:01;;;;;;;;;;;1.20;72.80;;;;;;5070651;27;81865;-63
2022/02/28 07:05:28;;;;;;;;;;;1.20;72.90;;;;;;5071600;27;82713;-63
2022/02/28 07:07:53;;;;;;;;;;;1.20;73.00;;;;;;5070899;27;81759;-63
2022/02/28 07:10:20;;;;;;;;;;;1.20;72.90;;;;;;5071108;27;82607;-63
2022/02/28 07:12:46;;;;;;;;;;;1.20;72.80;;;;;;5070601;27;83508;-63
2022/02/28 07:15:12;;;;;;;;;;;1.20;72.80;;;;;;5074238;27;81786;-63
2022/02/28 07:17:37;;;;;;;;;;;1.20;72.70;;;;;;5071037;27;83440;-63
2022/02/28 07:20:03;;;;;;;;;;;1.20;72.70;;;;;;5071116;27;81778;-64
2022/02/28 07:22:28;;;;;;;;;;;1.20;72.80;;;;;;5071434;27;81867;-63
2022/02/28 07:24:54;;;;;;;;;;;1.30;72.80;;;;;;5070897;27;82537;-63
2022/02/28 07:27:20;;;;;;;;;;;1.20;72.80;;;;;;5071195;27;81805;-64
2022/02/28 07:29:45;;;;;;;;;;;1.30;72.70;;;;;;5071867;27;80959;-63
2022/02/28 07:32:11;;;;;;;;;;;1.30;72.90;;;;;;5069856;27;82546;-64
2022/02/28 07:34:36;;;;;;;;;;;1.30;72.90;;;;;;5073770;27;81788;-64
2022/02/28 07:37:02;;;;;;;;;;;1.30;72.80;;;;;;5070258;27;83407;-64
2022/02/28 07:39:28;;;;;;;;;;;1.20;72.80;;;;;;5071268;27;81786;-64
2022/02/28 07:41:58;;;;;;;;;;;1.20;72.80;;;;;;5070879;27;83058;-64
2022/02/28 07:44:24;;;;;;;;;;;1.20;72.70;;;;;;5070714;27;83522;-63
2022/02/28 07:46:49;;;;;;;;;;;1.20;72.80;;;;;;5071021;27;81823;-63
2022/02/28 07:49:15;;;;;;;;;;;1.20;72.90;;;;;;5070158;27;81796;-64
2022/02/28 07:51:41;;;;;;;;;;;1.30;72.80;;;;;;5070425;27;83307;-64
2022/02/28 07:54:06;;;;;;;;;;;1.20;72.80;;;;;;5070774;27;81064;-64
2022/02/28 07:59:35;;;;;;;;;;;1.30;72.90;;;;;;5067655;27;81690;-62
2022/02/28 08:05:03;;;;;;;;;;;1.20;72.80;;;;;;5067355;27;81950;-63
2022/02/28 08:10:32;;;;;;;;;;;1.30;72.70;;;;;;5068041;27;81852;-64
2022/02/28 08:16:08;;;;;;;;;;;1.20;73.00;;;;;;5067202;27;81544;-63
2022/02/28 08:21:37;;;;;;;;;;;1.30;72.90;;;;;;5070472;27;81082;-64
2022/02/28 08:27:05;;;;;;;;;;;1.30;72.90;;;;;;5066897;27;81958;-63
2022/02/28 08:32:34;;;;;;;;;;;1.30;72.90;;;;;;5066979;27;82279;-64
2022/02/28 08:38:04;;;;;;;;;;;1.30;72.90;;;;;;5067042;27;81774;-64
2022/02/28 08:43:32;;;;;;;;;;;1.30;72.80;;;;;;5066652;27;81833;-63
2022/02/28 08:49:01;;;;;;;;;;;1.40;72.70;;;;;;5067243;27;81238;-63
2022/02/28 08:54:30;;;;;;;;;;;1.30;72.60;;;;;;5066829;27;81567;-63
2022/02/28 08:59:58;;;;;;;;;;;1.40;72.70;;;;;;5066638;27;81698;-63
2022/02/28 09:05:27;;;;;;;;;;;1.40;72.80;;;;;;5066391;27;82006;-63
2022/02/28 09:10:55;;;;;;;;;;;1.40;72.90;;;;;;5067429;27;81680;-62
2022/02/28 09:16:24;;;;;;;;;;;1.40;72.80;;;;;;5070481;27;80941;-63
2022/02/28 09:21:53;;;;;;;;;;;1.40;72.80;;;;;;5070426;27;81582;-62
2022/02/28 09:27:22;;;;;;;;;;;1.40;72.80;;;;;;5070011;27;81728;-62
2022/02/28 09:32:51;;;;;;;;;;;1.40;72.80;;;;;;5072268;27;81589;-63
2022/02/28 09:38:19;;;;;;;;;;;1.40;72.70;;;;;;5069746;27;81581;-62
2022/02/28 09:43:48;;;;;;;;;;;1.50;72.30;;;;;;5070270;27;81095;-63
2022/02/28 09:49:17;;;;;;;;;;;1.60;72.10;;;;;;5069286;27;81934;-62
2022/02/28 09:54:45;;;;;;;;;;;1.60;71.90;;;;;;5069466;27;81705;-63
2022/02/28 10:00:18;;;;;;;;;;;1.70;72.00;;;;;;5069352;27;81708;-62
2022/02/28 10:05:47;;;;;;;;;;;1.60;72.30;;;;;;5069175;27;81678;-63
2022/02/28 10:11:43;;;;;;;;;;;1.70;72.20;;;;;;5066493;27;81281;-63
2022/02/28 10:17:12;;;;;;;;;;;1.70;72.10;;;;;;5069093;27;81712;-63
2022/02/28 10:22:40;;;;;;;;;;;1.70;72.20;;;;;;5071721;27;81714;-63
2022/02/28 10:28:18;;;;;;;;;;;1.70;72.20;;;;;;5068877;27;81801;-62
2022/02/28 10:33:46;;;;;;;;;;;1.70;72.80;;;;;;5068464;27;81697;-62
2022/02/28 10:39:21;;;;;;;;;;;1.70;72.10;;;;;;5069121;27;80866;-63
2022/02/28 10:45:09;;;;;;;;;;;1.70;72.00;;;;;;5070311;27;81777;-63
2022/02/28 10:50:39;;;;;;;;;;;1.70;72.20;;;;;;5068510;27;81674;-64
2022/02/28 10:56:07;;;;;;;;;;;1.80;72.00;;;;;;5068297;27;81793;-64
2022/02/28 11:01:39;;;;;;;;;;;1.80;72.00;;;;;;5068347;27;81806;-63
2022/02/28 11:07:10;;;;;;;;;;;1.80;72.20;;;;;;5068684;27;81016;-63
2022/02/28 11:12:38;;;;;;;;;;;1.80;72.20;;;;;;5056191;27;81958;-64
2022/02/28 11:18:13;;;;;;;;;;;1.80;72.20;;;;;;5068137;27;81873;-63
2022/02/28 11:23:43;;;;;;;;;;;1.80;72.40;;;;;;5067979;27;81705;-63
2022/02/28 11:29:12;;;;;;;;;;;1.90;72.20;;;;;;5067935;27;81678;-63
2022/02/28 11:34:40;;;;;;;;;;;1.90;72.20;;;;;;5068174;27;81304;-63
2022/02/28 11:40:09;;;;;;;;;;;1.90;72.20;;;;;;5067552;27;81829;-63
2022/02/28 11:45:47;;;;;;;;;;;1.90;72.40;;;;;;5067559;27;82317;-65
2022/02/28 11:51:21;;;;;;;;;;;1.90;72.20;;;;;;5067521;27;81710;-65
2022/02/28 12:07:39;;;;;;;;;;;1.70;72.50;;;;;;5027639;27;1396414;-65
2022/02/28 12:10:09;;;;;;;;;;;1.60;73.80;;;;;;5247024;22;81571;-59
2022/02/28 12:12:39;;;;;;;;;;;1.60;74.30;;;;;;5005886;28;81030;-65
2022/02/28 12:15:08;;;;;;;;;;;1.70;73.90;;;;;;5223154;22;81739;-53
2022/02/28 12:20:12;;;;;;;;;;;1.70;73.60;;;;;;5575112;22;82350;-58
2022/02/28 12:22:52;;;;;;;;;;;;;;;;;;;;;
2022/02/28 12:28:15;;;;;;;;;;;4.00;70.20;;;;;;5126488;22;81011;-51
2022/02/28 13:06:39;;;;;;;;;;;;;;;;;;5040463;27;1382649;-58
2022/02/28 13:09:05;;;;;;;;;;;;;;;;;;5089268;27;80115;-60
2022/02/28 13:11:31;;;;;;;;;;;;;;;;;;5088841;27;80896;-54
2022/02/28 13:13:57;;;;;;;;;;;;;;;;;;5088651;27;81591;-60
2022/02/28 13:16:23;;;;;;;;;;;;;;;;;;5088695;27;80064;-51
2022/02/28 13:18:49;;;;;;;;;;;;;;;;;;5088788;27;80972;-60
2022/02/28 13:21:15;;;;;;;;;;;;;;;;;;5088746;27;80786;-60
2022/02/28 13:23:41;;;;;;;;;;;;;;;;;;5088782;27;80227;-61
2022/02/28 13:26:07;;;;;;;;;;;;;;;;;;5091210;27;80241;-62
2022/02/28 13:28:33;;;;;;;;;;;;;;;;;;5088496;27;80160;-61
2022/02/28 13:30:59;;;;;;;;;;;;;;;;;;5088637;27;80846;-60
2022/02/28 13:33:25;;;;;;;;;;;;;;;;;;5088292;27;82043;-61
2022/02/28 13:35:51;;;;;;;;;;;;;;;;;;5088311;27;80260;-58
2022/02/28 13:38:17;;;;;;;;;;;;;;;;;;5088666;27;80058;-61
2022/02/28 13:40:43;;;;;;;;;;;;;;;;;;5088307;27;81797;-60
2022/02/28 13:43:10;;;;;;;;;;;;;;;;;;5088371;27;80114;-58
2022/02/28 13:45:36;;;;;;;;;;;;;;;;;;5088230;27;80804;-60
2022/02/28 13:48:02;;;;;;;;;;;;;;;;;;5090752;27;80784;-60
2022/02/28 13:50:28;;;;;;;;;;;;;;;;;;5088281;27;80622;-60
2022/02/28 13:52:54;;;;;;;;;;;;;;;;;;5088180;27;80983;-60
2022/02/28 13:55:20;;;;;;;;;;;;;;;;;;5088212;27;80183;-58
2022/02/28 13:57:46;;;;;;;;;;;;;;;;;;5088397;27;80232;-59
2022/02/28 14:00:13;;;;;;;;;;;;;;;;;;5087990;27;81762;-59
2022/02/28 14:02:39;;;;;;;;;;;;;;;;;;5087967;27;80147;-60
2022/02/28 14:05:05;;;;;;;;;;;;;;;;;;5087560;27;80180;-61
2022/02/28 14:07:31;;;;;;;;;;;;;;;;;;5088213;27;80894;-59
2022/02/28 14:09:57;;;;;;;;;;;;;;;;;;5090669;27;80247;-61
2022/02/28 14:12:23;;;;;;;;;;;;;;;;;;5087612;27;80941;-60
2022/02/28 14:14:50;;;;;;;;;;;;;;;;;;5087774;27;80001;-60
2022/02/28 14:17:16;;;;;;;;;;;;;;;;;;5078460;27;80764;-60
2022/02/28 14:19:43;;;;;;;;;;;;;;;;;;5074420;27;81240;-58
2022/02/28 14:22:09;;;;;;;;;;;;;;;;;;5075019;27;80141;-60
2022/02/28 14:24:35;;;;;;;;;;;;;;;;;;5074191;27;80073;-61
2022/02/28 14:27:01;;;;;;;;;;;;;;;;;;5074013;27;80853;-60
2022/02/28 14:29:27;;;;;;;;;;;;;;;;;;5074307;27;80181;-60
2022/02/28 14:31:53;;;;;;;;;;;;;;;;;;5076497;27;80940;-60
2022/02/28 14:34:19;;;;;;;;;;;;;;;;;;5073986;27;80139;-62
2022/02/28 14:36:45;;;;;;;;;;;;;;;;;;5219729;22;81191;-60
2022/02/28 14:39:11;;;;;;;;;;;;;;;;;;5011745;28;81762;-58
2022/02/28 14:41:37;;;;;;;;;;;;;;;;;;4996492;28;91223;-60
2022/02/28 14:44:38;;;;;;;;;;;;;;;;;;5045757;27;80319;-60
2022/02/28 14:47:05;;;;;;;;;;;;;;;;;;5045906;27;80364;-60
2022/02/28 14:50:56;;;;;;;;;;;;;;;;;;5068846;27;80008;-60
2022/02/28 14:53:21;;;;;;;;;;;;;;;;;;5068352;27;79955;-61
2022/02/28 14:55:47;;;;;;;;;;;;;;;;;;5068535;27;80073;-59
2022/02/28 14:58:13;;;;;;;;;;;;;;;;;;5067807;27;79954;-61
2022/02/28 15:00:39;;;;;;;;;;;;;;;;;;5067890;27;80176;-60
2022/02/28 15:03:05;;;;;;;;;;;;;;;;;;5067793;27;80140;-61
2022/02/28 15:05:32;;;;;;;;;;;;;;;;;;5067484;27;80669;-61
2022/02/28 15:07:58;;;;;;;;;;;;;;;;;;5067658;27;80179;-59
2022/02/28 15:10:24;;;;;;;;;;;;;;;;;;5070025;27;80028;-60
2022/02/28 15:12:50;;;;;;;;;;;;;;;;;;5067621;27;80040;-57
2022/02/28 15:15:17;;;;;;;;;;;;;;;;;;5067274;27;80940;-60
2022/02/28 15:17:43;;;;;;;;;;;;;;;;;;5067079;27;81669;-60
2022/02/28 15:20:09;;;;;;;;;;;;;;;;;;5067270;27;80168;-60
2022/02/28 15:22:35;;;;;;;;;;;;;;;;;;5067217;27;80922;-61
2022/02/28 15:25:01;;;;;;;;;;;;;;;;;;5067297;27;80893;-60
2022/02/28 15:27:27;;;;;;;;;;;;;;;;;;5067124;27;80198;-60
2022/02/28 15:29:53;;;;;;;;;;;;;;;;;;5067414;27;80060;-60
2022/02/28 15:32:19;;;;;;;;;;;;;;;;;;5070100;27;80841;-62
2022/02/28 15:34:45;;;;;;;;;;;;;;;;;;5067118;27;79970;-60
2022/02/28 15:37:11;;;;;;;;;;;;;;;;;;5067007;27;81123;-59
2022/02/28 15:39:37;;;;;;;;;;;;;;;;;;5067270;27;80246;-60
2022/02/28 15:42:02;;;;;;;;;;;;;;;;;;5067070;27;80852;-59
2022/02/28 15:44:28;;;;;;;;;;;;;;;;;;5066772;27;82312;-59
2022/02/28 15:46:54;;;;;;;;;;;;;;;;;;5066846;27;80108;-60
2022/02/28 15:49:20;;;;;;;;;;;;;;;;;;5066506;27;80668;-60
2022/02/28 15:51:46;;;;;;;;;;;;;;;;;;5066492;27;81957;-60
2022/02/28 15:54:12;;;;;;;;;;;;;;;;;;5069386;27;80189;-59
2022/02/28 15:56:38;;;;;;;;;;;;;;;;;;5066619;27;80800;-60
2022/02/28 15:59:04;;;;;;;;;;;;;;;;;;5066698;27;80085;-60
2022/02/28 16:01:30;;;;;;;;;;;;;;;;;;5057687;27;80292;-60
2022/02/28 16:03:56;;;;;;;;;;;;;;;;;;5053031;28;81645;-59
2022/02/28 16:06:22;;;;;;;;;;;;;;;;;;5052990;28;80089;-60
2022/02/28 16:08:48;;;;;;;;;;;;;;;;;;5052910;28;80951;-60
2022/02/28 16:11:14;;;;;;;;;;;;;;;;;;5053211;28;80654;-59
2022/02/28 16:13:40;;;;;;;;;;;;;;;;;;5054218;28;80048;-59
2022/02/28 16:16:06;;;;;;;;;;;;;;;;;;5055406;28;80803;-60
2022/02/28 16:18:32;;;;;;;;;;;;;;;;;;5052919;27;80102;-60
2022/02/28 16:20:59;;;;;;;;;;;;;;;;;;5052838;28;80711;-60
2022/02/28 16:23:24;;;;;;;;;;;;;;;;;;5052463;28;82263;-53
2022/02/28 16:25:50;;;;;;;;;;;;;;;;;;5052916;28;80109;-58
2022/02/28 16:28:16;;;;;;;;;;;;;;;;;;5052715;28;80695;-56
2022/02/28 16:30:42;;;;;;;;;;;;;;;;;;5052453;28;81618;-54
2022/02/28 16:33:08;;;;;;;;;;;;;;;;;;5052797;28;80070;-55
2022/02/28 16:35:34;;;;;;;;;;;;;;;;;;5052813;28;81059;-54
2022/02/28 16:38:02;;;;;;;;;;;;;;;;;;5055151;28;80871;-53
2022/02/28 16:40:27;;;;;;;;;;;;;;;;;;5052533;28;80693;-57
2022/02/28 16:42:53;;;;;;;;;;;;;;;;;;5052269;28;81788;-53
2022/02/28 16:45:19;;;;;;;;;;;;;;;;;;5052249;28;80112;-53
2022/02/28 16:47:45;;;;;;;;;;;;;;;;;;5052541;28;80345;-53
2022/02/28 16:50:11;;;;;;;;;;;;;;;;;;5051678;28;81809;-58
2022/02/28 16:52:37;;;;;;;;;;;;;;;;;;5052295;28;80062;-55
2022/02/28 16:55:03;;;;;;;;;;;;;;;;;;5052207;28;80427;-54
2022/02/28 16:57:29;;;;;;;;;;;;;;;;;;5052521;28;80452;-54
2022/02/28 16:59:55;;;;;;;;;;;;;;;;;;5055041;28;80089;-54
2022/02/28 17:02:21;;;;;;;;;;;;;;;;;;5051848;28;81634;-54
2022/02/28 17:04:47;;;;;;;;;;;;;;;;;;5052428;28;80062;-54
2022/02/28 17:07:12;;;;;;;;;;;;;;;;;;5051971;28;81009;-54
2022/02/28 17:09:38;;;;;;;;;;;;;;;;;;5051709;28;81705;-56
2022/02/28 17:12:07;;;;;;;;;;;;;;;;;;5051567;27;80138;-56
2022/02/28 17:14:33;;;;;;;;;;;;;;;;;;5051729;28;80941;-54
2022/02/28 17:16:58;;;;;;;;;;;;;;;;;;5051614;28;81721;-56
2022/02/28 17:19:24;;;;;;;;;;;;;;;;;;5054581;28;80122;-55
2022/02/28 17:21:50;;;;;;;;;;;;;;;;;;5051877;28;81850;-57
2022/02/28 17:24:16;;;;;;;;;;;;;;;;;;5052283;28;80063;-55
2022/02/28 17:26:42;;;;;;;;;;;;;;;;;;5052038;28;80141;-55
2022/02/28 17:29:09;;;;;;;;;;;;;;;;;;5051630;28;80784;-57
2022/02/28 17:31:35;;;;;;;;;;;;;;;;;;5052601;27;79992;-57
2022/02/28 17:34:01;;;;;;;;;;;;;;;;;;5052868;28;80173;-55
2022/02/28 17:36:27;;;;;;;;;;;;;;;;;;5051653;28;80738;-53
2022/02/28 17:38:53;;;;;;;;;;;;;;;;;;5051872;28;80087;-58
2022/02/28 17:41:19;;;;;;;;;;;;;;;;;;5054160;28;80540;-55
2022/02/28 17:43:45;;;;;;;;;;;;;;;;;;5051848;28;80331;-55
2022/02/28 17:46:11;;;;;;;;;;;;;;;;;;5051576;28;80377;-54
2022/02/28 17:48:37;;;;;;;;;;;;;;;;;;5051181;28;80737;-61
2022/02/28 17:51:08;;;;;;;;;;;;;;;;;;5051763;28;80026;-54
2022/02/28 17:53:33;;;;;;;;;;;;;;;;;;5051404;27;80113;-53
2022/02/28 17:55:59;;;;;;;;;;;;;;;;;;5051400;28;80920;-53
2022/02/28 17:58:25;;;;;;;;;;;;;;;;;;5051257;28;79979;-58
2022/02/28 18:00:51;;;;;;;;;;;;;;;;;;5051245;28;80862;-57
2022/02/28 18:03:17;;;;;;;;;;;;;;;;;;5054009;28;81736;-55
2022/02/28 18:05:43;;;;;;;;;;;;;;;;;;5051565;28;80008;-58
2022/02/28 18:08:09;;;;;;;;;;;;;;;;;;5051182;28;81550;-56
2022/02/28 18:10:35;;;;;;;;;;;;;;;;;;5051287;28;80296;-58
2022/02/28 18:13:01;;;;;;;;;;;;;;;;;;5051449;28;80164;-60
2022/02/28 18:15:27;;;;;;;;;;;;;;;;;;5051282;28;80683;-59